Terminal Aerodrome Forecast
Issued by NWS

Home | Current Version | Previous Version | Text Only | Print | Product List | Glossary On
Versions: 1 2 3 4 5 6 7 8 9 10 11 12
000
FTUS44 KJAN 281200 AAA
TAFHKS
TAF AMD
KHKS 281245Z 2813/2912 34006KT P6SM OVC003
     FM281800 36007KT 5SM RA BR OVC007
     FM290300 02005KT P6SM -RA BKN008 OVC020=

USA.gov is the U.S. government's official web portal to all federal, state and local government web resources and services.